Time;durP1;ratioP1;P1;durP2;ratioP2;P2;SDS_P1;SDS_P2;PMS_P1;PMS_P2;Temp;Humidity;BMP_temperature;BMP_pressure;BME280_temperature;BME280_humidity;BME280_pressure;Samples;Min_cycle;Max_cycle;Signal;HPM_P1;HPM_P2
2021/09/22 00:00:35;;;;;;;;;;;17.00;74.50;;;;;;4314513;33;42656;-82
2021/09/22 00:03:04;;;;;;;;;;;17.00;74.60;;;;;;4314028;33;44104;-81
2021/09/22 00:05:32;;;;;;;;;;;17.00;74.60;;;;;;4314264;33;43045;-81
2021/09/22 00:08:01;;;;;;;;;;;17.00;74.50;;;;;;4315460;33;43084;-82
2021/09/22 00:10:28;;;;;;;;;;;16.90;74.50;;;;;;4314199;33;43021;-82
2021/09/22 00:13:01;;;;;;;;;;;16.90;74.60;;;;;;4314272;33;43482;-81
2021/09/22 00:15:29;;;;;;;;;;;16.90;74.70;;;;;;4314632;33;43500;-81
2021/09/22 00:17:58;;;;;;;;;;;16.90;74.70;;;;;;4318302;33;43922;-81
2021/09/22 00:20:33;;;;;;;;;;;16.90;74.80;;;;;;4317056;33;43532;-81
2021/09/22 00:23:06;;;;;;;;;;;16.90;74.90;;;;;;4318457;33;43254;-81
2021/09/22 00:25:40;;;;;;;;;;;16.80;75.10;;;;;;4317301;33;43371;-81
2021/09/22 00:28:10;;;;;;;;;;;16.80;75.10;;;;;;4318235;33;20002;-81
2021/09/22 00:30:44;;;;;;;;;;;16.80;75.20;;;;;;4316777;33;42736;-81
2021/09/22 00:33:13;;;;;;;;;;;16.80;75.20;;;;;;4317316;33;43599;-82
2021/09/22 00:35:43;;;;;;;;;;;16.80;75.10;;;;;;4317336;33;42883;-82
2021/09/22 00:38:13;;;;;;;;;;;16.80;75.40;;;;;;4316682;33;43261;-82
2021/09/22 00:40:40;;;;;;;;;;;16.80;75.40;;;;;;4317756;33;42232;-81
2021/09/22 00:43:09;;;;;;;;;;;16.80;75.40;;;;;;4316503;33;44096;-81
2021/09/22 00:45:40;;;;;;;;;;;16.70;75.40;;;;;;4316502;33;42645;-81
2021/09/22 00:48:12;;;;;;;;;;;16.80;75.40;;;;;;4316922;33;44086;-81
2021/09/22 00:50:47;;;;;;;;;;;16.70;75.30;;;;;;4318040;33;43256;-81
2021/09/22 00:53:16;;;;;;;;;;;16.60;75.50;;;;;;4316548;33;43471;-82
2021/09/22 00:55:44;;;;;;;;;;;16.70;75.80;;;;;;4317536;33;44650;-81
2021/09/22 00:58:29;;;;;;;;;;;16.70;75.80;;;;;;4318902;33;20049;-81
2021/09/22 01:00:56;;;;;;;;;;;16.70;75.80;;;;;;4316824;33;43286;-82
2021/09/22 01:03:26;;;;;;;;;;;16.70;75.80;;;;;;4316423;33;43880;-82
2021/09/22 01:05:59;;;;;;;;;;;16.60;75.90;;;;;;4317796;33;45018;-82
2021/09/22 01:08:32;;;;;;;;;;;16.60;75.90;;;;;;4316740;33;44101;-81
2021/09/22 01:11:00;;;;;;;;;;;16.60;76.00;;;;;;4317542;33;43478;-82
2021/09/22 01:13:33;;;;;;;;;;;16.60;76.10;;;;;;4317673;33;43281;-81
2021/09/22 01:16:03;;;;;;;;;;;16.60;76.00;;;;;;4316204;33;43056;-82
2021/09/22 01:18:33;;;;;;;;;;;16.60;76.10;;;;;;4316421;33;44175;-82
2021/09/22 01:21:00;;;;;;;;;;;16.60;76.10;;;;;;4317335;33;43314;-82
2021/09/22 01:23:28;;;;;;;;;;;16.60;76.20;;;;;;4316944;33;45730;-82
2021/09/22 01:25:57;;;;;;;;;;;16.60;76.30;;;;;;4315947;33;43847;-82
2021/09/22 01:28:26;;;;;;;;;;;16.60;76.30;;;;;;4317853;33;20010;-82
2021/09/22 01:31:00;;;;;;;;;;;16.50;76.20;;;;;;4317269;33;43515;-82
2021/09/22 01:33:30;;;;;;;;;;;16.50;76.30;;;;;;4317470;33;44092;-81
2021/09/22 01:36:04;;;;;;;;;;;16.50;76.30;;;;;;4316253;33;42958;-81
2021/09/22 01:38:34;;;;;;;;;;;16.50;76.40;;;;;;4316876;33;43573;-82
2021/09/22 01:41:09;;;;;;;;;;;16.50;76.50;;;;;;4316676;33;43824;-81
2021/09/22 01:43:40;;;;;;;;;;;16.50;76.50;;;;;;4315816;33;42851;-82
2021/09/22 01:46:11;;;;;;;;;;;16.50;76.50;;;;;;4317039;33;44512;-82
2021/09/22 01:48:39;;;;;;;;;;;16.50;76.40;;;;;;4317298;33;44215;-81
2021/09/22 01:51:07;;;;;;;;;;;16.50;76.50;;;;;;4317020;33;43150;-82
2021/09/22 01:53:34;;;;;;;;;;;16.40;76.40;;;;;;4315946;33;42294;-82
2021/09/22 01:56:05;;;;;;;;;;;16.50;76.30;;;;;;4316051;33;43120;-82
2021/09/22 01:58:38;;;;;;;;;;;16.40;76.30;;;;;;4316891;33;20002;-82
2021/09/22 02:01:12;;;;;;;;;;;16.40;76.20;;;;;;4315571;33;43743;-82
2021/09/22 02:03:44;;;;;;;;;;;16.30;76.20;;;;;;4315285;33;44516;-82
2021/09/22 02:06:15;;;;;;;;;;;16.30;76.40;;;;;;4303801;33;44243;-82
2021/09/22 02:08:44;;;;;;;;;;;16.30;76.40;;;;;;4316625;33;43960;-82
2021/09/22 02:11:16;;;;;;;;;;;16.30;76.50;;;;;;4315739;33;43966;-82
2021/09/22 02:13:49;;;;;;;;;;;16.20;76.40;;;;;;4315756;33;42906;-81
2021/09/22 02:16:21;;;;;;;;;;;16.20;76.50;;;;;;4315676;33;44961;-82
2021/09/22 02:18:51;;;;;;;;;;;16.20;76.50;;;;;;4315071;33;45623;-82
2021/09/22 02:21:18;;;;;;;;;;;16.20;76.60;;;;;;4315212;33;44104;-82
2021/09/22 02:23:45;;;;;;;;;;;16.10;77.40;;;;;;4316513;33;44906;-82
2021/09/22 02:26:12;;;;;;;;;;;16.10;76.70;;;;;;4315704;33;44036;-82
2021/09/22 02:28:44;;;;;;;;;;;16.10;76.80;;;;;;4316474;33;20037;-82
2021/09/22 02:31:17;;;;;;;;;;;16.10;76.80;;;;;;4316622;33;44231;-82
2021/09/22 02:33:46;;;;;;;;;;;16.10;76.80;;;;;;4315603;33;43922;-82
2021/09/22 02:36:19;;;;;;;;;;;16.00;76.80;;;;;;4315190;33;42618;-82
2021/09/22 02:38:46;;;;;;;;;;;16.10;76.90;;;;;;4316276;33;43868;-82
2021/09/22 02:41:16;;;;;;;;;;;16.10;76.90;;;;;;4314883;33;43487;-82
2021/09/22 02:43:43;;;;;;;;;;;16.00;76.90;;;;;;4316421;33;42655;-82
2021/09/22 02:46:10;;;;;;;;;;;16.00;77.00;;;;;;4315078;33;43313;-82
2021/09/22 02:48:42;;;;;;;;;;;16.00;77.00;;;;;;4315072;33;43261;-82
2021/09/22 02:51:14;;;;;;;;;;;16.00;77.10;;;;;;4316248;33;43743;-82
2021/09/22 02:53:41;;;;;;;;;;;16.00;77.10;;;;;;4314870;33;42756;-82
2021/09/22 02:56:11;;;;;;;;;;;15.90;77.10;;;;;;4316319;33;44231;-82
2021/09/22 02:58:38;;;;;;;;;;;15.90;77.20;;;;;;4314681;33;43358;-82
2021/09/22 03:01:05;;;;;;;;;;;15.90;77.20;;;;;;4314719;33;43354;-82
2021/09/22 03:03:35;;;;;;;;;;;15.90;77.20;;;;;;4315761;33;43938;-82
2021/09/22 03:06:06;;;;;;;;;;;15.90;77.30;;;;;;4315038;33;42920;-82
2021/09/22 03:08:38;;;;;;;;;;;15.80;77.20;;;;;;4314948;33;42976;-82
2021/09/22 03:11:09;;;;;;;;;;;15.90;77.40;;;;;;4315135;33;43909;-82
2021/09/22 03:13:36;;;;;;;;;;;15.90;77.40;;;;;;4316038;33;43950;-82
2021/09/22 03:16:10;;;;;;;;;;;15.80;77.40;;;;;;4315692;33;43832;-81
2021/09/22 03:18:40;;;;;;;;;;;15.80;77.50;;;;;;4316132;33;43299;-82
2021/09/22 03:21:07;;;;;;;;;;;15.80;77.50;;;;;;4314803;33;43396;-81
2021/09/22 03:23:38;;;;;;;;;;;15.80;77.60;;;;;;4314467;33;44071;-82
2021/09/22 03:26:13;;;;;;;;;;;15.70;77.60;;;;;;4315050;33;43930;-82
2021/09/22 03:28:43;;;;;;;;;;;15.80;77.70;;;;;;4315774;33;43049;-82
2021/09/22 03:31:12;;;;;;;;;;;15.70;77.70;;;;;;4315492;33;43977;-81
2021/09/22 03:33:40;;;;;;;;;;;15.70;77.70;;;;;;4315440;33;42719;-82
2021/09/22 03:36:10;;;;;;;;;;;15.80;77.80;;;;;;4314888;33;44306;-82
2021/09/22 03:38:37;;;;;;;;;;;15.70;77.80;;;;;;4315719;33;43422;-82
2021/09/22 03:41:04;;;;;;;;;;;15.70;77.90;;;;;;4315793;33;45145;-82
2021/09/22 03:43:31;;;;;;;;;;;15.70;77.90;;;;;;4314327;33;43005;-82
2021/09/22 03:46:01;;;;;;;;;;;15.70;77.90;;;;;;4315701;33;42854;-81
2021/09/22 03:48:33;;;;;;;;;;;15.70;78.00;;;;;;4315782;33;42095;-82
2021/09/22 03:51:00;;;;;;;;;;;15.70;78.00;;;;;;4315392;33;43344;-82
2021/09/22 03:53:29;;;;;;;;;;;15.60;77.90;;;;;;4318444;33;42669;-81
2021/09/22 03:55:57;;;;;;;;;;;15.60;77.90;;;;;;4317173;33;42934;-82
2021/09/22 03:58:30;;;;;;;;;;;15.60;78.00;;;;;;4317183;33;44196;-81
2021/09/22 04:00:57;;;;;;;;;;;15.60;78.00;;;;;;4318518;33;44177;-82
2021/09/22 04:03:29;;;;;;;;;;;15.60;78.10;;;;;;4318351;33;43227;-82
2021/09/22 04:05:57;;;;;;;;;;;15.60;78.10;;;;;;4317099;33;43626;-82
2021/09/22 04:08:26;;;;;;;;;;;15.50;78.10;;;;;;4317002;33;42306;-82
2021/09/22 04:10:59;;;;;;;;;;;15.50;78.10;;;;;;4317421;33;45920;-81
2021/09/22 04:13:26;;;;;;;;;;;15.50;78.20;;;;;;4316948;33;43809;-82
2021/09/22 04:15:56;;;;;;;;;;;15.50;78.20;;;;;;4318432;33;43042;-82
2021/09/22 04:18:23;;;;;;;;;;;15.50;78.20;;;;;;4317919;33;44045;-81
2021/09/22 04:20:50;;;;;;;;;;;15.50;78.30;;;;;;4316701;33;44754;-82
2021/09/22 04:23:17;;;;;;;;;;;15.50;78.40;;;;;;4318446;33;44267;-82
2021/09/22 04:25:44;;;;;;;;;;;15.40;78.40;;;;;;4316855;33;43029;-81
2021/09/22 04:28:12;;;;;;;;;;;15.40;78.50;;;;;;4318205;33;42725;-81
2021/09/22 04:30:41;;;;;;;;;;;15.40;78.50;;;;;;4317567;33;20116;-81
2021/09/22 04:33:08;;;;;;;;;;;15.40;78.60;;;;;;4317743;33;42974;-81
2021/09/22 04:35:35;;;;;;;;;;;15.40;78.60;;;;;;4316784;33;44912;-81
2021/09/22 04:38:02;;;;;;;;;;;15.40;78.60;;;;;;4317112;33;45814;-81
2021/09/22 04:40:30;;;;;;;;;;;15.40;78.70;;;;;;4316538;33;42838;-82
2021/09/22 04:43:02;;;;;;;;;;;15.40;78.70;;;;;;4317542;33;43790;-82
2021/09/22 04:45:29;;;;;;;;;;;15.30;78.60;;;;;;4317633;33;42615;-82
2021/09/22 04:47:58;;;;;;;;;;;15.30;78.70;;;;;;4316717;33;45529;-81
2021/09/22 04:50:33;;;;;;;;;;;15.30;78.80;;;;;;4317785;33;43564;-82
2021/09/22 04:53:06;;;;;;;;;;;15.30;78.80;;;;;;4317701;33;42708;-81
2021/09/22 04:55:33;;;;;;;;;;;15.30;78.90;;;;;;4316741;33;44948;-81
2021/09/22 04:58:00;;;;;;;;;;;15.30;78.90;;;;;;4317449;33;45041;-81
2021/09/22 05:00:27;;;;;;;;;;;15.30;78.90;;;;;;4316436;33;43844;-81
2021/09/22 05:02:55;;;;;;;;;;;15.20;78.90;;;;;;4316709;33;44632;-81
2021/09/22 05:05:22;;;;;;;;;;;15.20;78.80;;;;;;4316531;33;42515;-81
2021/09/22 05:07:49;;;;;;;;;;;15.20;78.80;;;;;;4317688;33;43461;-83
2021/09/22 05:10:16;;;;;;;;;;;15.20;78.90;;;;;;4317829;33;44108;-82
2021/09/22 05:12:46;;;;;;;;;;;15.20;79.00;;;;;;4316623;33;44036;-82
2021/09/22 05:15:13;;;;;;;;;;;15.20;79.00;;;;;;4315999;33;45059;-81
2021/09/22 05:17:43;;;;;;;;;;;15.10;79.00;;;;;;4316058;33;42749;-81
2021/09/22 05:20:10;;;;;;;;;;;15.10;79.00;;;;;;4316038;33;43191;-81
2021/09/22 05:22:42;;;;;;;;;;;15.10;79.00;;;;;;4315887;33;43750;-82
2021/09/22 05:25:13;;;;;;;;;;;15.10;79.00;;;;;;4317614;33;43507;-81
2021/09/22 05:27:51;;;;;;;;;;;15.10;79.10;;;;;;4316530;33;42801;-81
2021/09/22 05:30:18;;;;;;;;;;;15.10;79.10;;;;;;4317435;33;44731;-82
2021/09/22 05:32:45;;;;;;;;;;;15.10;79.10;;;;;;4316273;33;43498;-82
2021/09/22 05:35:12;;;;;;;;;;;15.10;79.20;;;;;;4317408;33;42442;-82
2021/09/22 05:37:43;;;;;;;;;;;15.10;79.10;;;;;;4315938;33;43544;-82
2021/09/22 05:40:10;;;;;;;;;;;15.00;79.10;;;;;;4316989;33;42600;-81
2021/09/22 05:42:42;;;;;;;;;;;15.00;79.20;;;;;;4315701;33;42936;-81
2021/09/22 05:45:14;;;;;;;;;;;15.00;79.20;;;;;;4316156;33;43312;-81
2021/09/22 05:47:44;;;;;;;;;;;15.00;79.20;;;;;;4315646;33;43787;-82
2021/09/22 05:50:11;;;;;;;;;;;15.00;79.20;;;;;;4316727;33;43072;-81
2021/09/22 05:52:41;;;;;;;;;;;15.00;79.20;;;;;;4316056;33;43474;-81
2021/09/22 05:55:08;;;;;;;;;;;14.90;79.20;;;;;;4316567;33;43410;-81
2021/09/22 05:57:35;;;;;;;;;;;15.00;79.30;;;;;;4315623;33;42724;-82
2021/09/22 06:00:07;;;;;;;;;;;15.00;79.30;;;;;;4315578;33;42815;-82
2021/09/22 06:02:40;;;;;;;;;;;14.90;79.40;;;;;;4316545;33;44012;-82
2021/09/22 06:05:10;;;;;;;;;;;14.90;79.40;;;;;;4316823;33;44971;-81
2021/09/22 06:07:42;;;;;;;;;;;14.90;79.40;;;;;;4315980;33;43469;-81
2021/09/22 06:10:10;;;;;;;;;;;14.90;79.50;;;;;;4316959;33;43855;-81
2021/09/22 06:12:41;;;;;;;;;;;14.90;79.50;;;;;;4316384;33;44399;-81
2021/09/22 06:15:11;;;;;;;;;;;14.90;79.60;;;;;;4315409;33;44268;-81
2021/09/22 06:17:41;;;;;;;;;;;14.90;79.60;;;;;;4316387;33;42680;-81
2021/09/22 06:20:08;;;;;;;;;;;14.80;79.60;;;;;;4315391;33;44654;-81
2021/09/22 06:22:35;;;;;;;;;;;14.80;79.70;;;;;;4315162;33;42235;-82
2021/09/22 06:25:06;;;;;;;;;;;14.80;79.70;;;;;;4316879;33;44220;-81
2021/09/22 06:27:36;;;;;;;;;;;14.90;79.90;;;;;;4315082;33;43694;-82
2021/09/22 06:30:09;;;;;;;;;;;14.90;80.10;;;;;;4315463;33;44074;-81
2021/09/22 06:32:38;;;;;;;;;;;14.90;80.10;;;;;;4316457;33;20003;-81
2021/09/22 06:35:08;;;;;;;;;;;14.80;80.10;;;;;;4316568;33;43253;-81
2021/09/22 06:37:38;;;;;;;;;;;14.90;80.20;;;;;;4315431;33;43538;-81
2021/09/22 06:40:08;;;;;;;;;;;14.80;80.20;;;;;;4315334;33;43874;-81
2021/09/22 06:42:42;;;;;;;;;;;14.80;80.30;;;;;;4316546;33;43866;-82
2021/09/22 06:45:09;;;;;;;;;;;14.80;80.40;;;;;;4316464;33;43469;-82
2021/09/22 06:47:39;;;;;;;;;;;14.80;80.40;;;;;;4316346;33;43846;-82
2021/09/22 06:50:09;;;;;;;;;;;14.80;80.50;;;;;;4316332;33;44761;-81
2021/09/22 06:52:36;;;;;;;;;;;14.80;80.70;;;;;;4315865;33;42567;-82
2021/09/22 06:55:04;;;;;;;;;;;14.90;80.90;;;;;;4315934;33;43271;-81
2021/09/22 06:57:34;;;;;;;;;;;14.90;81.00;;;;;;4319735;33;43276;-80
2021/09/22 07:00:04;;;;;;;;;;;14.90;81.10;;;;;;4317238;33;42790;-80
2021/09/22 07:02:37;;;;;;;;;;;14.90;81.20;;;;;;4313033;33;43352;-80
2021/09/22 07:05:09;;;;;;;;;;;14.90;81.30;;;;;;4314486;33;43374;-81
2021/09/22 07:07:39;;;;;;;;;;;14.90;81.40;;;;;;4314017;33;43230;-82
2021/09/22 07:10:06;;;;;;;;;;;14.90;81.50;;;;;;4313802;33;42879;-82
2021/09/22 07:12:36;;;;;;;;;;;14.90;81.60;;;;;;4313333;33;42859;-82
2021/09/22 07:15:06;;;;;;;;;;;15.00;81.80;;;;;;4312578;33;43916;-82
2021/09/22 07:17:35;;;;;;;;;;;14.90;81.80;;;;;;4311901;33;44385;-82
2021/09/22 07:20:08;;;;;;;;;;;15.00;82.00;;;;;;4312460;33;43470;-82
2021/09/22 07:22:35;;;;;;;;;;;15.00;82.00;;;;;;4301340;33;42661;-82
2021/09/22 07:25:05;;;;;;;;;;;15.00;82.00;;;;;;4301098;33;43113;-82
2021/09/22 07:27:35;;;;;;;;;;;15.00;82.10;;;;;;4301045;33;42327;-82
2021/09/22 07:30:05;;;;;;;;;;;15.00;82.10;;;;;;4301038;33;42267;-82
2021/09/22 07:32:32;;;;;;;;;;;15.00;82.30;;;;;;4311850;33;43546;-82
2021/09/22 07:35:01;;;;;;;;;;;15.00;82.30;;;;;;4301022;33;43514;-82
2021/09/22 07:37:28;;;;;;;;;;;15.00;82.30;;;;;;4301527;33;43873;-82
2021/09/22 07:39:58;;;;;;;;;;;15.00;82.50;;;;;;4301237;33;44057;-81
2021/09/22 07:42:25;;;;;;;;;;;15.00;82.50;;;;;;4300842;33;43787;-82
2021/09/22 07:44:55;;;;;;;;;;;15.00;82.70;;;;;;4301193;33;43713;-82
2021/09/22 07:47:22;;;;;;;;;;;15.00;82.70;;;;;;4300952;33;43966;-82
2021/09/22 07:49:51;;;;;;;;;;;15.00;82.90;;;;;;4312127;33;43941;-82
2021/09/22 07:52:21;;;;;;;;;;;15.00;82.90;;;;;;4301072;33;43354;-82
2021/09/22 07:54:48;;;;;;;;;;;15.10;83.20;;;;;;4312041;33;43829;-82
2021/09/22 07:57:21;;;;;;;;;;;15.00;83.20;;;;;;4300754;33;43195;-82
2021/09/22 07:59:48;;;;;;;;;;;15.00;83.30;;;;;;4301578;33;43934;-83
2021/09/22 08:02:17;;;;;;;;;;;15.10;83.40;;;;;;4311425;33;45506;-82
2021/09/22 08:04:48;;;;;;;;;;;15.10;83.40;;;;;;4301695;33;20013;-82
2021/09/22 08:07:35;;;;;;;;;;;15.10;83.50;;;;;;4301363;33;45731;-82
2021/09/22 08:10:04;;;;;;;;;;;15.00;83.50;;;;;;4312240;33;42395;-82
2021/09/22 08:12:32;;;;;;;;;;;15.10;83.60;;;;;;4301209;33;44215;-82
2021/09/22 08:15:07;;;;;;;;;;;15.10;83.60;;;;;;4311835;33;42540;-82
2021/09/22 08:17:34;;;;;;;;;;;15.10;83.70;;;;;;4312095;33;44029;-82
2021/09/22 08:20:02;;;;;;;;;;;15.10;83.70;;;;;;4311696;33;43175;-82
2021/09/22 08:22:29;;;;;;;;;;;15.10;83.80;;;;;;4300990;33;42801;-82
2021/09/22 08:25:04;;;;;;;;;;;15.10;83.80;;;;;;4311643;33;42334;-82
2021/09/22 08:27:33;;;;;;;;;;;15.10;83.90;;;;;;4300837;33;44933;-83
2021/09/22 08:30:00;;;;;;;;;;;15.10;84.00;;;;;;4311899;33;43350;-82
2021/09/22 08:32:27;;;;;;;;;;;15.10;84.10;;;;;;4311522;33;42726;-82
2021/09/22 08:35:00;;;;;;;;;;;15.10;84.10;;;;;;4312340;33;20007;-83
2021/09/22 08:37:27;;;;;;;;;;;15.10;84.00;;;;;;4313209;33;44292;-82
2021/09/22 08:39:54;;;;;;;;;;;15.10;84.00;;;;;;4303358;33;43486;-82
2021/09/22 08:42:24;;;;;;;;;;;15.10;84.10;;;;;;4313979;33;44366;-82
2021/09/22 08:44:51;;;;;;;;;;;15.10;84.00;;;;;;4303142;33;43758;-82
2021/09/22 08:47:19;;;;;;;;;;;15.10;84.80;;;;;;4314045;33;43902;-83
2021/09/22 08:49:50;;;;;;;;;;;15.10;84.00;;;;;;4313972;33;43806;-83
2021/09/22 08:52:17;;;;;;;;;;;15.10;84.80;;;;;;4314639;33;44349;-82
2021/09/22 08:54:45;;;;;;;;;;;15.10;84.00;;;;;;4314095;33;43455;-82
2021/09/22 08:57:14;;;;;;;;;;;15.20;84.10;;;;;;4313947;33;43168;-82
2021/09/22 08:59:41;;;;;;;;;;;15.20;84.10;;;;;;4302852;33;43962;-82
2021/09/22 09:02:12;;;;;;;;;;;15.20;84.20;;;;;;4313535;33;43423;-83
2021/09/22 09:04:42;;;;;;;;;;;15.20;84.20;;;;;;4303330;33;44366;-82
2021/09/22 09:07:10;;;;;;;;;;;15.20;84.30;;;;;;4313887;33;43860;-82
2021/09/22 09:09:38;;;;;;;;;;;15.20;84.30;;;;;;4302810;33;43062;-83
2021/09/22 09:12:15;;;;;;;;;;;15.20;84.30;;;;;;4314278;33;44119;-83
2021/09/22 09:14:51;;;;;;;;;;;15.20;84.20;;;;;;4313738;33;43074;-83
2021/09/22 09:17:40;;;;;;;;;;;15.30;84.20;;;;;;4302741;33;42734;-83
2021/09/22 09:20:15;;;;;;;;;;;15.30;84.20;;;;;;4303092;33;43536;-83
2021/09/22 09:22:55;;;;;;;;;;;15.20;84.10;;;;;;4302911;33;43472;-82
2021/09/22 09:25:23;;;;;;;;;;;15.30;84.20;;;;;;4314021;33;43861;-83
2021/09/22 09:27:50;;;;;;;;;;;15.30;84.20;;;;;;4313623;33;44918;-83
2021/09/22 09:30:21;;;;;;;;;;;15.30;84.20;;;;;;4302771;33;44129;-83
2021/09/22 09:32:51;;;;;;;;;;;15.30;84.30;;;;;;4313828;33;44151;-83
2021/09/22 09:35:24;;;;;;;;;;;15.30;84.30;;;;;;4313270;33;43823;-83
2021/09/22 09:37:52;;;;;;;;;;;15.30;84.40;;;;;;4313429;33;44046;-83
2021/09/22 09:40:33;;;;;;;;;;;15.30;84.30;;;;;;4302589;33;43801;-83
2021/09/22 09:43:02;;;;;;;;;;;15.30;84.40;;;;;;4302633;33;43188;-83
2021/09/22 09:45:34;;;;;;;;;;;15.40;84.40;;;;;;4313256;33;44715;-83
2021/09/22 09:48:02;;;;;;;;;;;15.40;84.40;;;;;;4302436;33;43129;-84
2021/09/22 09:50:35;;;;;;;;;;;15.40;84.50;;;;;;4313705;33;43299;-83
2021/09/22 09:53:02;;;;;;;;;;;15.40;84.60;;;;;;4302577;33;45998;-83
2021/09/22 09:55:29;;;;;;;;;;;15.40;84.60;;;;;;4313603;33;45522;-83
2021/09/22 09:58:02;;;;;;;;;;;15.50;84.60;;;;;;4312850;33;43691;-83
2021/09/22 10:00:35;;;;;;;;;;;15.50;84.60;;;;;;4302595;33;43909;-83
2021/09/22 10:03:12;;;;;;;;;;;15.50;84.60;;;;;;4312400;33;43227;-83
2021/09/22 10:05:40;;;;;;;;;;;15.50;84.70;;;;;;4316910;33;44054;-84
2021/09/22 10:08:09;;;;;;;;;;;15.50;84.60;;;;;;4315931;33;42531;-83
2021/09/22 10:10:36;;;;;;;;;;;15.50;84.60;;;;;;4316851;33;43887;-83
2021/09/22 10:13:04;;;;;;;;;;;15.60;84.70;;;;;;4316743;33;44882;-83
2021/09/22 10:15:33;;;;;;;;;;;15.60;84.60;;;;;;4316372;33;43693;-82
2021/09/22 10:18:06;;;;;;;;;;;15.60;84.60;;;;;;4316497;33;43976;-83
2021/09/22 10:20:36;;;;;;;;;;;15.60;84.60;;;;;;4315453;33;43661;-83
2021/09/22 10:23:23;;;;;;;;;;;15.60;84.60;;;;;;4316675;33;45887;-83
2021/09/22 10:25:53;;;;;;;;;;;15.60;84.40;;;;;;4316707;33;43921;-84
2021/09/22 10:28:35;;;;;;;;;;;15.70;84.50;;;;;;4315456;33;43039;-84
2021/09/22 10:31:13;;;;;;;;;;;15.70;84.50;;;;;;4316538;33;44572;-84
2021/09/22 10:33:43;;;;;;;;;;;15.70;84.40;;;;;;4315471;33;43343;-84
2021/09/22 10:36:16;;;;;;;;;;;15.70;84.40;;;;;;4314960;33;43565;-85
2021/09/22 10:38:47;;;;;;;;;;;15.70;84.40;;;;;;4316582;33;44906;-84
2021/09/22 10:41:25;;;;;;;;;;;15.70;84.40;;;;;;4315118;33;43972;-84
2021/09/22 10:43:56;;;;;;;;;;;15.80;84.50;;;;;;4303151;33;43315;-84
2021/09/22 10:46:23;;;;;;;;;;;15.80;84.40;;;;;;4316571;33;43251;-84
2021/09/22 10:48:56;;;;;;;;;;;15.80;84.40;;;;;;4315239;33;44242;-84
2021/09/22 10:51:32;;;;;;;;;;;15.90;84.50;;;;;;4315128;33;45256;-84
2021/09/22 10:54:08;;;;;;;;;;;15.90;84.50;;;;;;4314931;33;44342;-84
2021/09/22 10:57:05;;;;;;;;;;;15.90;84.40;;;;;;4316308;33;44303;-84
2021/09/22 10:59:37;;;;;;;;;;;15.90;84.40;;;;;;4309489;33;43071;-84
2021/09/22 11:02:08;;;;;;;;;;;16.00;84.30;;;;;;4315048;33;44020;-85
2021/09/22 11:04:56;;;;;;;;;;;16.00;84.30;;;;;;4315185;33;43790;-85
2021/09/22 11:07:26;;;;;;;;;;;16.00;84.30;;;;;;4316081;33;42624;-84
2021/09/22 11:09:53;;;;;;;;;;;16.00;84.20;;;;;;4317131;33;20393;-84
2021/09/22 11:12:31;;;;;;;;;;;16.10;84.30;;;;;;4314621;33;42864;-84
2021/09/22 11:15:06;;;;;;;;;;;16.10;84.30;;;;;;4316250;33;41535;-84
2021/09/22 11:17:36;;;;;;;;;;;16.20;84.30;;;;;;4314916;33;44918;-84
2021/09/22 11:20:05;;;;;;;;;;;16.20;84.10;;;;;;4315821;33;19994;-84
2021/09/22 11:22:37;;;;;;;;;;;16.30;84.00;;;;;;4315210;33;43472;-84
2021/09/22 11:25:05;;;;;;;;;;;16.30;84.00;;;;;;4315587;33;42776;-84
2021/09/22 11:27:33;;;;;;;;;;;16.40;83.90;;;;;;4315816;33;43444;-84
2021/09/22 11:30:07;;;;;;;;;;;16.40;83.90;;;;;;4315862;33;42938;-84
2021/09/22 11:32:36;;;;;;;;;;;16.40;83.70;;;;;;4315936;33;43534;-84
2021/09/22 11:35:07;;;;;;;;;;;16.50;83.80;;;;;;4314386;33;44950;-84
2021/09/22 11:37:49;;;;;;;;;;;16.50;83.50;;;;;;4314442;33;43178;-84
2021/09/22 11:40:23;;;;;;;;;;;16.50;83.60;;;;;;4315242;33;20017;-84
2021/09/22 11:42:56;;;;;;;;;;;16.60;83.60;;;;;;4314420;33;42569;-84
2021/09/22 11:45:45;;;;;;;;;;;16.60;83.60;;;;;;4314249;33;43458;-84
2021/09/22 11:48:16;;;;;;;;;;;16.70;83.50;;;;;;4302785;33;44224;-84
2021/09/22 11:50:45;;;;;;;;;;;16.60;83.50;;;;;;4314455;33;44105;-84
2021/09/22 11:53:13;;;;;;;;;;;16.70;83.60;;;;;;4314653;33;43870;-84
2021/09/22 11:55:41;;;;;;;;;;;16.70;83.60;;;;;;4314272;33;43768;-85
2021/09/22 11:58:12;;;;;;;;;;;16.70;83.60;;;;;;4315546;33;43775;-84
2021/09/22 12:00:40;;;;;;;;;;;16.70;83.60;;;;;;4315663;33;45287;-84
2021/09/22 12:03:09;;;;;;;;;;;16.80;83.60;;;;;;4315217;33;43491;-84
2021/09/22 12:05:40;;;;;;;;;;;16.80;83.60;;;;;;4315531;33;43807;-87
2021/09/22 12:08:11;;;;;;;;;;;16.80;83.50;;;;;;4314554;33;43194;-85
2021/09/22 12:10:42;;;;;;;;;;;16.90;83.60;;;;;;4316088;33;20002;-85
2021/09/22 12:13:13;;;;;;;;;;;16.90;83.50;;;;;;4316271;33;44114;-85
2021/09/22 12:15:41;;;;;;;;;;;17.00;83.50;;;;;;4318056;33;42665;-85
2021/09/22 12:18:11;;;;;;;;;;;17.00;83.30;;;;;;4318237;33;46023;-85
2021/09/22 12:20:40;;;;;;;;;;;17.00;83.40;;;;;;4318408;33;44249;-85
2021/09/22 12:23:08;;;;;;;;;;;17.10;83.40;;;;;;4316937;33;42783;-85
2021/09/22 12:25:40;;;;;;;;;;;17.10;83.40;;;;;;4317971;33;44213;-85
2021/09/22 12:28:18;;;;;;;;;;;17.20;83.40;;;;;;4317031;33;42951;-86
2021/09/22 12:30:47;;;;;;;;;;;17.20;83.40;;;;;;4318091;33;44017;-85
2021/09/22 12:33:19;;;;;;;;;;;17.20;83.40;;;;;;4317118;33;44286;-85
2021/09/22 12:35:46;;;;;;;;;;;17.30;83.40;;;;;;4318251;33;43946;-85
2021/09/22 12:38:15;;;;;;;;;;;17.30;83.40;;;;;;4316858;33;42727;-85
2021/09/22 12:40:48;;;;;;;;;;;17.40;83.40;;;;;;4319233;33;20336;-85
2021/09/22 12:43:23;;;;;;;;;;;17.40;83.50;;;;;;4318131;33;43014;-85
2021/09/22 12:46:04;;;;;;;;;;;17.40;83.40;;;;;;4318124;33;43474;-85
2021/09/22 12:48:36;;;;;;;;;;;17.40;83.40;;;;;;4317672;33;42287;-85
2021/09/22 12:51:17;;;;;;;;;;;17.40;83.40;;;;;;4317853;33;42716;-85
2021/09/22 12:53:47;;;;;;;;;;;17.50;83.30;;;;;;4318272;33;44335;-85
2021/09/22 12:56:21;;;;;;;;;;;17.60;83.30;;;;;;4317040;33;44145;-85
2021/09/22 12:58:54;;;;;;;;;;;17.60;83.40;;;;;;4317275;33;45385;-85
2021/09/22 13:01:32;;;;;;;;;;;17.70;83.20;;;;;;4316422;33;42926;-84
2021/09/22 13:04:01;;;;;;;;;;;17.70;83.40;;;;;;4317907;33;44018;-85
2021/09/22 13:06:31;;;;;;;;;;;17.80;83.10;;;;;;4317915;33;43213;-85
2021/09/22 13:09:00;;;;;;;;;;;17.80;83.20;;;;;;4316389;33;42358;-85
2021/09/22 13:11:33;;;;;;;;;;;17.80;83.30;;;;;;4318274;33;20002;-85
2021/09/22 13:14:15;;;;;;;;;;;17.90;83.20;;;;;;4317186;33;42569;-85
2021/09/22 13:16:56;;;;;;;;;;;17.90;82.60;;;;;;4316703;33;42800;-84
2021/09/22 13:19:27;;;;;;;;;;;18.00;82.80;;;;;;4317108;33;44116;-85
2021/09/22 13:21:59;;;;;;;;;;;18.00;82.60;;;;;;4316537;33;44120;-85
2021/09/22 13:24:30;;;;;;;;;;;18.10;82.80;;;;;;4315674;33;44787;-85
2021/09/22 13:27:01;;;;;;;;;;;18.10;82.70;;;;;;4316130;33;43402;-85
2021/09/22 13:29:29;;;;;;;;;;;18.10;82.40;;;;;;4315971;33;43252;-85
2021/09/22 13:32:00;;;;;;;;;;;18.20;82.30;;;;;;4317384;33;45472;-85
2021/09/22 13:34:31;;;;;;;;;;;18.20;82.40;;;;;;4317470;33;44991;-85
2021/09/22 13:36:59;;;;;;;;;;;18.30;82.30;;;;;;4316416;33;44097;-86
2021/09/22 13:39:27;;;;;;;;;;;18.30;82.30;;;;;;4317359;33;42394;-86
2021/09/22 13:42:00;;;;;;;;;;;18.30;82.10;;;;;;4315900;33;42518;-85
2021/09/22 13:44:27;;;;;;;;;;;18.40;82.10;;;;;;4316159;33;43310;-85
2021/09/22 13:46:55;;;;;;;;;;;18.40;82.10;;;;;;4316182;33;43923;-85
2021/09/22 13:49:27;;;;;;;;;;;18.40;82.20;;;;;;4316031;33;42683;-85
2021/09/22 13:51:57;;;;;;;;;;;18.40;82.00;;;;;;4316744;33;42683;-85
2021/09/22 13:54:24;;;;;;;;;;;18.50;82.00;;;;;;4316095;33;44477;-85
2021/09/22 13:56:51;;;;;;;;;;;18.50;82.00;;;;;;4316575;33;44200;-85
2021/09/22 13:59:18;;;;;;;;;;;18.60;82.10;;;;;;4315608;33;43918;-85
2021/09/22 14:01:50;;;;;;;;;;;18.60;81.80;;;;;;4315496;33;43271;-85
2021/09/22 14:04:23;;;;;;;;;;;18.60;81.80;;;;;;4315472;33;42866;-85
2021/09/22 14:06:51;;;;;;;;;;;18.70;81.80;;;;;;4315968;33;44024;-83
2021/09/22 14:09:18;;;;;;;;;;;18.70;81.80;;;;;;4316938;33;43898;-83
2021/09/22 14:11:45;;;;;;;;;;;18.80;81.80;;;;;;4316348;33;43944;-83
2021/09/22 14:14:12;;;;;;;;;;;18.80;81.70;;;;;;4316416;33;43272;-85
2021/09/22 14:16:39;;;;;;;;;;;18.80;81.60;;;;;;4316531;33;43731;-87
2021/09/22 14:19:07;;;;;;;;;;;18.90;81.40;;;;;;4315616;33;44093;-86
2021/09/22 14:21:36;;;;;;;;;;;18.90;81.40;;;;;;4316718;33;43154;-86
2021/09/22 14:24:06;;;;;;;;;;;19.00;81.50;;;;;;4316330;33;44217;-85
2021/09/22 14:26:33;;;;;;;;;;;19.00;81.20;;;;;;4316280;33;43112;-85
2021/09/22 14:29:00;;;;;;;;;;;19.10;81.10;;;;;;4315250;33;44173;-85
2021/09/22 14:31:29;;;;;;;;;;;19.10;81.00;;;;;;4315082;33;42992;-85
2021/09/22 14:34:01;;;;;;;;;;;19.10;80.90;;;;;;4316387;33;43449;-85